KBNA/BNA METAR and TAF weather

Enter ICAO airport designator
Station Type Date Time Source
KBNA METAR 2018/10/19 14:53 UTC NOAA

KBNA 191453Z 17005KT 10SM SCT250 14/07 A3028 RMK AO2 SLP250 T01390072 58008


Station Type Date Time Source
KBNA Decoded METAR 2018/10/19 14:53 UTC NOAA

NASHVILLE INTERNATIONAL AIRPORT, TN, United States (KBNA) 36-07N 086-41W 210M
Oct 19, 2018 - 10:53 AM EDT / 2018.10.19 1453 UTC
Wind: from the S (170 degrees) at 6 MPH (5 KT):0
Visibility: 10 mile(s):0
Sky conditions: partly cloudy
Temperature: 57.0 F (13.9 C)
Dew Point: 45.0 F (7.2 C)
Relative Humidity: 63%
Pressure (altimeter): 30.28 in. Hg (1025 hPa)
Pressure tendency: 0.02 inches (0.8 hPa) lower than three hours ago
ob: KBNA 191453Z 17005KT 10SM SCT250 14/07 A3028 RMK AO2 SLP250 T01390072 58008
cycle: 15

Station Type Date Time Source
KBNA TAF 2018/10/19 12:39 UTC NOAA

TAF KBNA 191135Z 1912/2012 16004KT P6SM SCT250
FM191600 19008G13KT P6SM BKN250
FM192300 27005KT P6SM BKN100 OVC250
FM200200 27004KT 5SM -RA BR SCT025 OVC050
FM200800 28006KT 6SM -SHRA BR OVC020
FM201000 30004KT 6SM -DZ BR OVC007


Example: see airport list